Latest Weather Observations for Ouse

IDT60801

Issued at 9:02 pm EST Monday 27 June 2016 (issued every 30 minutes, with the page automatically refreshed every 10 minutes)

About weather observations | Map of weather stations | Latest weather observations for TAS | Other Formats
Station Details ID: 095048 Name: OUSE FIRE STATION Lat: -42.48 Lon: 146.71 Height: 90.0 m
Data from the previous 72 hours. | See also: Recent months at Ouse
Date/Time
EST
Temp
°C
App
Temp
°C
Dew
Point
°C
Rel
Hum
%
Delta-T
°C
Wind Press
QNH
hPa
Press
MSL
hPa
Rain since
9am
mm
Dir  Spd
km/h
Gust
km/h
Spd
kts
Gust
kts
27/09:00pm 5.9 1.9 2.9 81 1.2 N 13 17 7 9 1012.4 1012.7 0.0
27/08:30pm 5.5 1.9 2.8 83 1.1 N 11 15 6 8 1012.4 1012.7 0.0
27/08:00pm 5.6 2.3 2.3 79 1.3 N 9 13 5 7 1012.3 1012.6 0.0
27/07:30pm 7.5 3.9 3.0 73 1.9 NNW 11 17 6 9 1012.5 1012.8 0.0
27/07:00pm 7.4 4.3 3.5 76 1.7 NNW 9 13 5 7 1012.4 1012.7 0.0
27/06:30pm 5.4 2.1 2.6 82 1.1 N 9 11 5 6 1012.3 1012.6 0.0
27/06:00pm 6.3 2.3 2.6 77 1.5 N 13 15 7 8 1012.1 1012.4 0.0
27/05:30pm 7.2 3.1 2.5 72 2.0 NNW 13 19 7 10 1011.9 1012.2 0.0
27/05:00pm 9.3 5.0 3.3 66 2.6 NW 15 22 8 12 1011.6 1011.9 0.0
27/04:30pm 9.8 5.9 3.5 65 2.8 NW 13 24 7 13 1011.3 1011.6 0.0
27/04:00pm 10.7 6.0 3.0 59 3.4 NW 17 24 9 13 1011.1 1011.4 0.0
27/03:30pm 11.4 7.0 2.9 56 3.7 NW 15 20 8 11 1010.9 1011.2 0.0
27/03:00pm 12.0 8.0 2.7 53 4.1 NW 13 24 7 13 1011.0 1011.3 0.0
27/02:30pm 11.9 6.3 3.4 56 3.8 NW 22 33 12 18 1010.9 1011.2 0.0
27/02:00pm 12.2 7.6 3.9 57 3.7 WNW 17 26 9 14 1010.9 1011.2 0.0
27/01:30pm 12.1 6.9 2.3 51 4.3 WNW 19 32 10 17 1011.0 1011.3 0.0
27/01:00pm 12.0 7.5 4.0 58 3.6 NW 17 26 9 14 1011.0 1011.3 0.0
27/12:30pm 12.2 7.1 3.9 57 3.7 W 20 32 11 17 1011.2 1011.5 0.0
27/12:00pm 11.5 6.3 3.8 59 3.4 WNW 20 33 11 18 1011.5 1011.8 0.0
27/11:30am 11.3 6.3 3.8 60 3.3 WNW 19 26 10 14 1011.7 1012.0 0.0
27/11:00am 10.6 5.7 4.1 64 2.9 NW 19 28 10 15 1012.0 1012.3 0.0
27/10:30am 10.0 6.4 4.8 70 2.3 NNW 13 20 7 11 1012.1 1012.4 0.0
27/10:00am 9.8 7.0 5.0 72 2.2 N 9 15 5 8 1012.1 1012.4 0.0
27/09:30am 7.3 4.0 4.8 84 1.1 N 11 13 6 7 1012.0 1012.3 0.0
27/09:00am 4.2 1.0 3.0 92 0.5 N 9 11 5 6 1011.9 1012.2 0.0
27/08:30am 4.5 0.7 4.1 97 0.2 N 13 17 7 9 1011.6 1011.9 0.0
27/08:00am 3.0 -0.7 2.3 95 0.3 N 11 13 6 7 1011.5 1011.8 0.0
27/07:30am 4.2 0.8 3.8 97 0.2 N 11 13 6 7 1011.2 1011.5 0.0
27/07:00am 3.9 0.8 3.8 99 0.0 N 9 13 5 7 1011.1 1011.4 0.0
27/06:30am 3.6 0.1 3.5 99 0.0 NNW 11 13 6 7 1010.5 1010.7 0.0
27/06:00am 3.3 0.3 2.3 93 0.4 NNW 7 9 4 5 1010.5 1010.7 0.0
27/05:30am 4.4 1.3 3.4 93 0.4 N 9 11 5 6 1010.3 1010.5 0.0
27/05:00am 6.0 2.7 4.6 91 0.6 NNW 11 15 6 8 1010.0 1010.2 0.0
27/04:30am 5.0 1.9 3.8 92 0.5 N 9 13 5 7 1009.7 1009.9 0.0
27/04:00am 4.9 2.2 3.7 92 0.5 NNW 7 9 4 5 1009.8 1010.0 0.0
27/03:30am 5.2 2.7 4.0 92 0.5 NW 6 7 3 4 1009.7 1009.9 0.0
27/03:00am 5.6 2.1 3.3 85 1.0 N 11 17 6 9 1009.6 1009.8 0.0
27/02:30am 4.3 1.4 2.8 90 0.6 N 7 11 4 6 1009.6 1009.8 0.0
27/02:00am 5.6 1.4 3.8 88 0.8 N 15 17 8 9 1009.4 1009.6 0.0
27/01:30am 5.6 2.0 3.1 84 1.0 N 11 15 6 8 1009.2 1009.4 0.0
27/01:00am 7.2 4.1 3.6 78 1.5 N 9 11 5 6 1009.2 1009.4 0.0
27/12:30am 8.7 4.5 3.9 72 2.1 NW 15 22 8 12 1009.1 1009.3 0.0
27/12:00am 8.6 4.4 4.0 73 2.0 NW 15 20 8 11 1009.0 1009.2 0.0
 
Date/Time
EST
Temp
°C
App
Temp
°C
Dew
Point
°C
Rel
Hum
%
Delta-T
°C
Wind Press
QNH
hPa
Press
MSL
hPa
Rain since
9am
mm
Dir  Spd
km/h
Gust
km/h
Spd
kts
Gust
kts
26/11:30pm 8.4 3.9 4.2 75 1.8 NNW 17 28 9 15 1009.1 1009.3 0.0
26/11:00pm 8.3 3.8 4.1 75 1.8 NNW 17 20 9 11 1009.2 1009.4 0.0
26/10:30pm 8.4 4.2 4.0 74 1.9 NW 15 20 8 11 1009.3 1009.5 0.0
26/10:00pm 5.9 2.4 3.6 85 1.0 N 11 13 6 7 1009.5 1009.7 0.0
26/09:30pm 7.0 3.6 4.0 81 1.3 N 11 13 6 7 1009.7 1009.9 0.0
26/09:00pm 7.2 3.7 3.6 78 1.5 N 11 13 6 7 1009.9 1010.1 0.0
26/08:30pm 7.6 4.5 3.6 76 1.7 N 9 15 5 8 1010.0 1010.2 0.0
26/08:00pm 8.1 4.0 4.1 76 1.7 N 15 20 8 11 1009.9 1010.1 0.0
26/07:30pm 7.6 4.6 4.0 78 1.6 N 9 13 5 7 1010.1 1010.3 0.0
26/07:00pm 7.6 4.2 4.2 79 1.5 N 11 13 6 7 1010.2 1010.4 0.0
26/06:30pm 7.8 4.9 4.4 79 1.5 N 9 13 5 7 1010.1 1010.3 0.0
26/06:00pm 8.5 5.2 4.7 77 1.7 N 11 13 6 7 1010.1 1010.3 0.0
26/05:30pm 8.7 5.8 4.7 76 1.8 NNW 9 13 5 7 1010.0 1010.2 0.0
26/05:00pm 10.0 7.2 5.0 71 2.3 NNW 9 15 5 8 1010.0 1010.2 0.0
26/04:30pm 10.2 7.5 5.6 73 2.1 N 9 15 5 8 1010.2 1010.4 0.0
26/04:00pm 10.8 8.4 5.3 69 2.5 NNW 7 11 4 6 1010.3 1010.5 0.0
26/03:30pm 11.8 9.0 5.2 64 3.1 N 9 13 5 7 1010.4 1010.6 0.0
26/03:00pm 12.2 9.0 4.9 61 3.4 NNW 11 19 6 10 1010.6 1010.8 0.0
26/02:30pm 12.5 9.2 4.7 59 3.6 NNW 11 17 6 9 1010.8 1011.0 0.0
26/02:00pm 12.5 8.4 4.5 58 3.7 NNW 15 24 8 13 1011.1 1011.4 0.0
26/01:30pm 13.1 9.1 5.0 58 3.8 NNW 15 20 8 11 1011.3 1011.6 0.0
26/01:00pm 13.0 8.2 4.4 56 3.9 NNW 19 32 10 17 1011.7 1012.0 0.0
26/12:30pm 13.1 9.2 5.5 60 3.6 NNW 15 22 8 12 1012.0 1012.3 0.0
26/12:00pm 12.9 10.0 6.5 65 3.1 NW 11 15 6 8 1012.4 1012.7 0.0
26/11:30am 12.2 9.7 6.7 69 2.6 NNE 9 13 5 7 1013.1 1013.4 0.0
26/11:00am 11.1 9.1 7.0 76 2.0 N 7 11 4 6 1013.8 1014.1 0.0
26/10:30am 8.9 6.2 5.6 80 1.5 N 9 15 5 8 1014.3 1014.6 0.0
26/10:00am 8.5 6.2 5.6 82 1.3 NNW 7 9 4 5 1014.6 1014.9 0.0
26/09:30am 6.6 5.5 5.1 90 0.7 CALM 0 4 0 2 1014.6 1014.9 0.0
26/09:00am 6.4 4.6 5.4 93 0.4 N 4 7 2 4 1014.9 1015.2 0.0
26/08:30am 5.9 3.1 5.3 96 0.3 N 9 11 5 6 1015.0 1015.3 0.0
26/08:00am 5.3 2.4 4.7 96 0.3 N 9 11 5 6 1015.2 1015.5 0.0
26/07:30am 5.3 1.7 5.2 99 0.0 N 13 17 7 9 1015.1 1015.4 0.0
26/07:00am 3.0 0.2 2.9 99 0.0 N 7 11 4 6 1015.2 1015.5 0.0
26/06:30am 2.4 0.0 2.3 99 0.0 N 4 9 2 5 1015.1 1015.4 0.0
26/06:00am 2.7 0.0 2.6 99 0.0 N 6 7 3 4 1015.0 1015.3 0.0
26/05:30am 3.1 1.5 2.7 97 0.2 CALM 0 0 0 0 1015.0 1015.3 0.0
26/05:00am 4.4 1.8 4.1 98 0.1 N 7 9 4 5 1014.9 1015.2 0.0
26/04:30am 4.6 1.2 4.0 96 0.3 N 11 15 6 8 1014.9 1015.2 0.0
26/04:00am 5.2 1.9 4.5 95 0.3 NNW 11 17 6 9 1014.9 1015.2 0.0
26/03:30am 4.6 1.6 4.3 98 0.1 N 9 11 5 6 1015.1 1015.4 0.0
26/03:00am 4.6 1.6 4.3 98 0.1 N 9 13 5 7 1015.2 1015.5 0.0
26/02:30am 4.5 0.7 3.9 96 0.3 N 13 17 7 9 1015.3 1015.6 0.0
26/02:00am 4.8 1.1 4.4 97 0.2 N 13 17 7 9 1015.4 1015.7 0.0
26/01:30am 4.5 1.1 4.2 98 0.1 N 11 15 6 8 1015.4 1015.7 0.0
26/01:00am 4.8 1.1 4.4 97 0.2 N 13 15 7 8 1015.7 1016.0 0.0
26/12:30am 4.9 1.6 4.8 99 0.0 N 11 17 6 9 1015.8 1016.1 0.0
26/12:00am 4.7 1.8 4.6 99 0.0 N 9 15 5 8 1016.2 1016.4 0.0
 
Date/Time
EST
Temp
°C
App
Temp
°C
Dew
Point
°C
Rel
Hum
%
Delta-T
°C
Wind Press
QNH
hPa
Press
MSL
hPa
Rain since
9am
mm
Dir  Spd
km/h
Gust
km/h
Spd
kts
Gust
kts
25/11:30pm 4.3 0.9 4.0 98 0.1 N 11 17 6 9 1016.2 1016.4 0.0
25/11:00pm 5.3 1.6 4.6 95 0.3 N 13 17 7 9 1016.2 1016.4 0.0
25/10:30pm 6.0 2.5 5.3 95 0.3 N 13 19 7 10 1016.6 1016.8 0.0
25/10:00pm 6.1 2.5 5.1 93 0.4 N 13 19 7 10 1016.5 1016.7 0.0
25/09:30pm 5.8 2.9 4.8 93 0.4 N 9 11 5 6 1016.9 1017.1 0.0
25/09:00pm 5.7 2.4 4.7 93 0.4 N 11 17 6 9 1017.2 1017.4 0.0
25/08:30pm 5.3 2.1 4.9 97 0.2 N 11 11 6 6 1017.2 1017.4 0.0
25/08:00pm 6.6 3.4 5.2 91 0.6 NNW 11 17 6 9 1017.5 1017.7 0.0
25/07:30pm 6.3 3.5 5.3 93 0.4 NNW 9 17 5 9 1017.4 1017.6 0.0
25/07:00pm 5.9 3.0 4.4 90 0.6 N 9 15 5 8 1017.3 1017.5 0.0
25/06:30pm 7.0 3.5 5.3 89 0.8 N 13 20 7 11 1017.2 1017.4 0.0
25/06:00pm 6.2 3.2 4.2 87 0.9 NNW 9 15 5 8 1017.0 1017.2 0.0
25/05:30pm 6.6 3.7 4.6 87 0.9 N 9 11 5 6 1016.8 1017.0 0.0
25/05:00pm 6.8 3.8 4.3 84 1.1 N 9 11 5 6 1016.7 1016.9 0.0
25/04:30pm 7.8 5.3 4.9 82 1.3 N 7 11 4 6 1016.7 1016.9 0.0
25/04:00pm 8.8 6.3 5.0 77 1.7 N 7 9 4 5 1016.5 1016.7 0.0
25/03:30pm 10.0 7.6 5.2 72 2.2 NNW 7 13 4 7 1016.5 1016.7 0.0
25/03:00pm 10.1 6.5 4.9 70 2.3 NNW 13 19 7 10 1016.5 1016.7 0.0
25/02:30pm 10.4 6.7 4.3 66 2.7 NW 13 17 7 9 1016.7 1016.9 0.0
25/02:00pm 10.3 6.6 4.5 67 2.6 NW 13 20 7 11 1016.8 1017.0 0.0
25/01:30pm 9.4 5.3 4.2 70 2.3 NW 15 20 8 11 1017.1 1017.3 0.0
25/01:00pm 8.9 5.0 3.5 69 2.3 NNW 13 20 7 11 1017.3 1017.5 0.0
25/12:30pm 9.5 6.5 3.9 68 2.5 NNW 9 17 5 9 1017.6 1017.8 0.0
25/12:00pm 8.8 4.8 3.0 67 2.5 N 13 19 7 10 1017.6 1017.8 0.0
25/11:30am 8.5 4.4 2.5 66 2.5 NW 13 22 7 12 1017.8 1018.0 0.0
25/11:00am 8.7 5.0 2.5 65 2.6 NNW 11 17 6 9 1017.9 1018.1 0.0
25/10:30am 7.4 3.8 2.7 72 2.0 NW 11 22 6 12 1017.9 1018.1 0.0
25/10:00am 4.0 2.3 1.7 85 0.9 CALM 0 0 0 0 1017.8 1018.0 0.0
25/09:30am 3.0 0.0 0.9 86 0.8 SE 6 7 3 4 1017.6 1017.8 0.0
25/09:00am 2.5 -0.5 0.6 87 0.7 SE 6 9 3 5 1017.4 1017.6 0.2
25/08:30am 1.7 -1.5 0.7 93 0.4 W 7 11 4 6 1017.1 1017.3 0.2
25/08:00am 1.4 -2.2 0.5 94 0.3 SSE 9 13 5 7 1017.1 1017.3 0.2
25/07:30am 1.6 -2.8 0.1 90 0.6 NW 13 17 7 9 1016.7 1016.9 0.2
25/07:00am 2.2 -2.1 0.9 91 0.5 NW 13 17 7 9 1016.2 1016.4 0.2
25/06:30am 1.3 -2.4 0.0 91 0.5 NW 9 11 5 6 1015.9 1016.2 0.2
25/06:00am 2.7 -1.6 0.9 88 0.7 NNW 13 15 7 8 1015.5 1015.8 0.2
25/05:30am 1.9 -2.1 0.7 92 0.5 NW 11 15 6 8 1015.1 1015.4 0.2
25/05:00am 1.4 -2.6 0.5 94 0.3 N 11 13 6 7 1014.9 1015.2 0.2
25/04:30am 3.0 -0.5 1.1 87 0.7 NW 9 15 5 8 1014.7 1015.0 0.2
25/04:00am 3.4 -1.2 1.3 86 0.8 NW 15 22 8 12 1014.3 1014.6 0.2
25/03:30am 1.8 -1.8 0.8 93 0.4 NW 9 15 5 8 1014.2 1014.5 0.2
25/03:00am 2.0 -2.1 0.1 87 0.7 NW 11 17 6 9 1013.9 1014.2 0.2
25/02:30am 1.6 -2.1 0.0 89 0.6 N 9 15 5 8 1013.7 1014.0 0.2
25/02:00am 1.4 -2.3 -0.2 89 0.6 NNW 9 15 5 8 1013.3 1013.6 0.2
25/01:30am 1.4 -2.7 -0.4 88 0.7 N 11 15 6 8 1012.8 1013.1 0.2
25/01:00am 1.9 -2.5 0.4 90 0.6 N 13 17 7 9 1012.4 1012.7 0.2
25/12:30am 2.3 -1.4 0.0 85 0.9 N 9 17 5 9 1012.2 1012.5 0.2
25/12:00am 2.6 -1.1 0.0 83 1.0 NNW 9 13 5 7 1011.9 1012.2 0.2
 
Date/Time
EST
Temp
°C
App
Temp
°C
Dew
Point
°C
Rel
Hum
%
Delta-T
°C
Wind Press
QNH
hPa
Press
MSL
hPa
Rain since
9am
mm
Dir  Spd
km/h
Gust
km/h
Spd
kts
Gust
kts
24/11:30pm 3.2 -1.2 0.4 82 1.1 NNW 13 19 7 10 1011.6 1011.9 0.2
24/11:00pm 4.2 -0.6 0.0 74 1.6 NW 15 20 8 11 1011.5 1011.8 0.2
24/10:30pm 4.2 -0.6 0.4 76 1.5 WNW 15 20 8 11 1011.2 1011.5 0.2
24/10:00pm 4.2 -0.6 0.5 77 1.4 WNW 15 20 8 11 1010.7 1010.9 0.2
24/09:30pm 4.2 -1.3 0.7 78 1.3 WNW 19 24 10 13 1010.0 1010.2 0.2

Other Formats:

Comma delimited format used in spreadsheet applications
http://www.bom.gov.au/fwo/IDT60801/IDT60801.94957.axf

JavaScript Object Notation format (JSON) in row-major order
http://www.bom.gov.au/fwo/IDT60801/IDT60801.94957.json